createdAt,value
2018-03-23T00:01:51.083Z,81.78
2018-03-23T00:04:17.473Z,82.65
2018-03-23T00:06:43.949Z,84.05
2018-03-23T00:09:10.361Z,83.33
2018-03-23T00:11:36.886Z,83.18
2018-03-23T00:14:03.266Z,83.80
2018-03-23T00:16:29.629Z,82.29
2018-03-23T00:18:56.021Z,82.36
2018-03-23T00:21:22.465Z,82.75
2018-03-23T00:23:48.860Z,82.16
2018-03-23T00:26:15.211Z,81.52
2018-03-23T00:28:41.626Z,80.97
2018-03-23T00:31:08.199Z,82.74
2018-03-23T00:33:34.657Z,83.61
2018-03-23T00:36:01.014Z,84.09
2018-03-23T00:38:27.428Z,83.88
2018-03-23T00:40:53.797Z,83.42
2018-03-23T00:43:20.211Z,82.99
2018-03-23T00:45:46.605Z,83.23
2018-03-23T00:48:13.029Z,83.03
2018-03-23T00:50:44.175Z,81.52
2018-03-23T00:53:11.490Z,82.25
2018-03-23T00:55:37.881Z,85.10
2018-03-23T00:58:04.311Z,84.82
2018-03-23T01:00:30.768Z,85.24
2018-03-23T01:02:57.153Z,84.51
2018-03-23T01:05:23.682Z,83.64
2018-03-23T01:07:50.167Z,82.12
2018-03-23T01:10:16.517Z,83.01
2018-03-23T01:12:42.957Z,83.34
2018-03-23T01:15:09.396Z,83.68
2018-03-23T01:17:35.772Z,84.72
2018-03-23T01:20:02.196Z,84.13
2018-03-23T01:22:28.657Z,83.38
2018-03-23T01:24:55.022Z,84.54
2018-03-23T01:27:21.445Z,84.59
2018-03-23T01:29:48.009Z,83.00
2018-03-23T01:32:14.372Z,83.60
2018-03-23T01:34:40.782Z,83.78
2018-03-23T01:37:07.185Z,82.74
2018-03-23T01:39:33.559Z,82.40
2018-03-23T01:42:00.055Z,82.41
2018-03-23T01:44:26.493Z,83.09
2018-03-23T01:46:52.871Z,82.26
2018-03-23T01:49:19.300Z,81.39
2018-03-23T01:51:45.718Z,81.40
2018-03-23T01:54:12.118Z,81.21
2018-03-23T01:56:38.580Z,82.70
2018-03-23T01:59:04.958Z,82.21
2018-03-23T02:01:31.371Z,82.10
2018-03-23T02:03:57.809Z,82.61
2018-03-23T02:06:24.258Z,83.29
2018-03-23T02:08:50.713Z,83.73
2018-03-23T02:11:17.148Z,83.54
2018-03-23T02:13:43.538Z,84.41
2018-03-23T02:16:09.946Z,84.33
2018-03-23T02:18:36.338Z,84.20
2018-03-23T02:21:02.761Z,85.34
2018-03-23T02:23:29.190Z,84.21
2018-03-23T02:25:55.588Z,84.76
2018-03-23T02:28:22.009Z,84.39
2018-03-23T02:30:48.499Z,84.15
2018-03-23T02:33:14.907Z,84.71
2018-03-23T02:35:41.308Z,84.83
2018-03-23T02:38:07.710Z,84.61
2018-03-23T02:40:34.121Z,85.09
2018-03-23T02:43:00.517Z,85.57
2018-03-23T02:45:26.971Z,84.48
2018-03-23T02:47:53.346Z,84.59
2018-03-23T02:50:19.750Z,85.47
2018-03-23T02:52:46.187Z,85.17
2018-03-23T02:55:12.652Z,85.24
2018-03-23T02:57:39.030Z,85.18
2018-03-23T03:00:05.534Z,85.06
2018-03-23T03:02:32.106Z,85.07
2018-03-23T03:04:58.659Z,85.14
2018-03-23T03:07:25.195Z,84.77
2018-03-23T03:09:51.626Z,84.96
2018-03-23T03:12:17.980Z,84.68
2018-03-23T03:14:44.341Z,85.33
2018-03-23T03:17:10.751Z,84.78
2018-03-23T03:19:37.188Z,83.98
2018-03-23T03:22:03.574Z,84.09
2018-03-23T03:24:30.046Z,83.20
2018-03-23T03:26:56.434Z,83.98
2018-03-23T03:29:22.935Z,83.60
2018-03-23T03:31:49.341Z,84.53
2018-03-23T03:34:15.757Z,85.15
2018-03-23T03:36:42.209Z,85.26
2018-03-23T03:39:08.569Z,84.98
2018-03-23T03:41:34.983Z,84.99
2018-03-23T03:44:01.435Z,84.79
2018-03-23T03:46:27.894Z,83.72
2018-03-23T03:48:54.257Z,83.12
2018-03-23T03:51:20.718Z,83.24
2018-03-23T03:53:47.111Z,82.95
2018-03-23T03:56:13.574Z,82.35
2018-03-23T03:58:40.185Z,82.04
2018-03-23T04:01:06.621Z,82.39
2018-03-23T04:03:33.026Z,82.39
2018-03-23T04:05:59.865Z,82.18
2018-03-23T04:08:26.276Z,82.28
2018-03-23T04:10:52.773Z,82.40
2018-03-23T04:13:19.216Z,81.86
2018-03-23T04:15:45.615Z,81.70
2018-03-23T04:18:11.992Z,81.81
2018-03-23T04:20:38.398Z,81.57
2018-03-23T04:23:04.832Z,82.02
2018-03-23T04:25:31.329Z,82.34
2018-03-23T04:27:57.810Z,82.88
2018-03-23T04:30:24.177Z,83.19
2018-03-23T04:32:50.589Z,82.21
2018-03-23T04:35:17.062Z,81.62
2018-03-23T04:37:43.516Z,81.49
2018-03-23T04:40:09.915Z,81.54
2018-03-23T04:42:36.358Z,81.09
2018-03-23T04:45:02.880Z,81.09
2018-03-23T04:47:29.294Z,81.52
2018-03-23T04:49:55.954Z,81.39
2018-03-23T04:52:22.538Z,80.93
2018-03-23T04:54:48.956Z,80.61
2018-03-23T04:57:15.384Z,80.67
2018-03-23T04:59:41.986Z,80.67
2018-03-23T05:02:08.434Z,80.42
2018-03-23T05:04:34.929Z,80.28
2018-03-23T05:07:01.341Z,80.82
2018-03-23T05:09:27.720Z,80.38
2018-03-23T05:11:54.130Z,81.00
2018-03-23T05:14:20.570Z,81.45
2018-03-23T05:16:47.015Z,81.24
2018-03-23T05:19:13.479Z,81.67
2018-03-23T05:21:40.001Z,81.34
2018-03-23T05:24:06.478Z,81.47
2018-03-23T05:26:33.005Z,82.27
2018-03-23T05:28:59.493Z,81.83
2018-03-23T05:31:26.061Z,81.98
2018-03-23T05:33:52.474Z,82.45
2018-03-23T05:36:18.874Z,82.02
2018-03-23T05:38:45.302Z,82.58
2018-03-23T05:41:11.737Z,81.45
2018-03-23T05:43:40.305Z,80.83
2018-03-23T05:46:06.733Z,81.40
2018-03-23T05:48:33.195Z,82.32
2018-03-23T05:50:59.659Z,82.04
2018-03-23T05:53:26.090Z,81.48
2018-03-23T05:55:52.550Z,81.29
2018-03-23T05:58:18.927Z,81.12
2018-03-23T06:00:45.406Z,81.26
2018-03-23T06:03:11.946Z,81.13
2018-03-23T06:05:39.410Z,80.54
2018-03-23T06:08:05.962Z,81.00
2018-03-23T06:10:32.503Z,80.71
2018-03-23T06:12:58.905Z,80.84
2018-03-23T06:15:25.365Z,81.63
2018-03-23T06:17:51.881Z,81.89
2018-03-23T06:20:18.370Z,81.42
2018-03-23T06:22:44.930Z,80.91
2018-03-23T06:25:11.376Z,80.50
2018-03-23T06:27:38.513Z,80.35
2018-03-23T06:30:05.053Z,80.16
2018-03-23T06:32:31.565Z,79.86
2018-03-23T06:34:57.990Z,80.99
2018-03-23T06:37:24.673Z,80.89
2018-03-23T06:39:51.241Z,81.10
2018-03-23T06:42:17.652Z,81.12
2018-03-23T06:44:44.124Z,81.62
2018-03-23T06:47:10.742Z,81.26
2018-03-23T06:49:37.141Z,80.38
2018-03-23T06:52:03.661Z,80.27
2018-03-23T06:54:30.261Z,80.47
2018-03-23T06:56:57.706Z,80.74
2018-03-23T06:59:25.100Z,80.69
2018-03-23T07:01:51.586Z,80.33
2018-03-23T07:04:17.978Z,80.29
2018-03-23T07:06:44.484Z,80.40
2018-03-23T07:09:10.890Z,80.50
2018-03-23T07:11:37.382Z,81.39
2018-03-23T07:14:03.822Z,81.15
2018-03-23T07:16:30.350Z,81.57
2018-03-23T07:18:56.773Z,81.86
2018-03-23T07:21:23.226Z,82.57
2018-03-23T07:23:49.705Z,82.65
2018-03-23T07:26:16.176Z,82.57
2018-03-23T07:28:42.634Z,81.75
2018-03-23T07:31:09.143Z,80.11
2018-03-23T07:33:35.575Z,81.29
2018-03-23T07:36:01.962Z,80.72
2018-03-23T07:38:28.474Z,81.14
2018-03-23T07:40:54.997Z,81.92
2018-03-23T07:43:21.594Z,81.86
2018-03-23T07:45:48.025Z,81.66
2018-03-23T07:48:14.483Z,82.81
2018-03-23T07:50:40.949Z,81.81
2018-03-23T07:53:07.531Z,82.08
2018-03-23T07:55:33.966Z,82.26
2018-03-23T07:58:00.400Z,81.88
2018-03-23T08:00:26.874Z,81.56
2018-03-23T08:02:53.333Z,80.78
2018-03-23T08:05:19.741Z,79.87
2018-03-23T08:07:46.214Z,79.89
2018-03-23T08:10:12.646Z,80.16
2018-03-23T08:12:39.160Z,80.91
2018-03-23T08:15:05.659Z,80.71
2018-03-23T08:17:32.117Z,81.69
2018-03-23T08:19:58.550Z,80.04
2018-03-23T08:22:25.039Z,80.23
2018-03-23T08:24:51.494Z,79.59
2018-03-23T08:27:17.930Z,79.93
2018-03-23T08:29:45.247Z,80.01
2018-03-23T08:32:11.711Z,79.76
2018-03-23T08:34:38.205Z,79.75
2018-03-23T08:37:04.725Z,80.58
2018-03-23T08:39:31.147Z,80.75
2018-03-23T08:41:57.586Z,79.42
2018-03-23T08:44:24.313Z,78.94
2018-03-23T08:46:50.862Z,79.08
2018-03-23T08:49:17.326Z,78.67
2018-03-23T08:51:43.910Z,79.06
2018-03-23T08:54:10.370Z,79.48
2018-03-23T08:56:36.936Z,79.16
2018-03-23T08:59:03.378Z,79.04
2018-03-23T09:01:29.819Z,78.73
2018-03-23T09:03:56.267Z,78.14
2018-03-23T09:06:22.742Z,77.95
2018-03-23T09:08:49.197Z,77.64
2018-03-23T09:11:15.581Z,78.21
2018-03-23T09:13:42.034Z,78.22
2018-03-23T09:16:08.583Z,79.13
2018-03-23T09:18:35.059Z,79.17
2018-03-23T09:21:01.516Z,78.76
2018-03-23T09:23:28.018Z,78.64
2018-03-23T09:25:54.494Z,78.55
2018-03-23T09:28:20.958Z,77.49
2018-03-23T09:30:47.422Z,77.60
2018-03-23T09:33:13.908Z,77.68
2018-03-23T09:35:40.516Z,77.41
2018-03-23T09:38:06.998Z,76.01
2018-03-23T09:40:33.565Z,75.92
2018-03-23T09:43:00.103Z,76.72
2018-03-23T09:45:26.643Z,77.23
2018-03-23T09:47:53.117Z,77.40
2018-03-23T09:50:19.662Z,75.98
2018-03-23T09:52:46.185Z,75.62
2018-03-23T09:55:12.678Z,76.03
2018-03-23T09:57:39.110Z,75.51
2018-03-23T10:00:05.624Z,76.58
2018-03-23T10:02:32.081Z,76.05
2018-03-23T10:04:58.537Z,74.82
2018-03-23T10:07:25.128Z,75.10
2018-03-23T10:09:51.535Z,76.02
2018-03-23T10:12:18.018Z,76.12
2018-03-23T10:14:44.486Z,76.03
2018-03-23T10:17:10.949Z,75.90
2018-03-23T10:19:37.443Z,75.92
2018-03-23T10:22:03.890Z,75.81
2018-03-23T10:24:30.346Z,75.10
2018-03-23T10:26:56.842Z,73.73
2018-03-23T10:29:23.291Z,73.16
2018-03-23T10:31:49.730Z,73.97
2018-03-23T10:34:16.233Z,74.31
2018-03-23T10:36:42.858Z,74.41
2018-03-23T10:39:09.455Z,72.95
2018-03-23T10:41:36.009Z,74.07
2018-03-23T10:44:02.742Z,73.61
2018-03-23T10:46:29.174Z,73.86
2018-03-23T10:48:56.330Z,73.35
2018-03-23T10:51:22.804Z,74.21
2018-03-23T10:53:49.268Z,72.99
2018-03-23T10:56:15.721Z,73.68
2018-03-23T10:58:42.195Z,72.77
2018-03-23T11:14:25.400Z,74.80
2018-03-23T11:16:51.868Z,73.97
2018-03-23T11:19:18.453Z,73.02
2018-03-23T11:21:44.966Z,74.11
2018-03-23T11:24:11.398Z,74.40
2018-03-23T11:26:37.889Z,73.23
2018-03-23T11:29:04.422Z,72.54
2018-03-23T11:31:30.817Z,72.66
2018-03-23T11:33:57.310Z,72.23
2018-03-23T11:36:23.782Z,71.53
2018-03-23T11:38:50.422Z,71.48
2018-03-23T11:41:17.196Z,71.00
2018-03-23T11:43:43.636Z,71.33
2018-03-23T11:46:10.027Z,71.77
2018-03-23T11:48:36.707Z,71.80
2018-03-23T11:51:03.146Z,72.30
2018-03-23T11:53:29.599Z,74.44
2018-03-23T11:55:56.189Z,73.16
2018-03-23T11:58:22.638Z,71.99
2018-03-23T12:00:49.319Z,72.06
2018-03-23T12:03:15.870Z,71.36
2018-03-23T12:05:46.738Z,71.76
2018-03-23T12:08:18.947Z,71.02
2018-03-23T12:10:45.626Z,71.60
2018-03-23T12:13:12.394Z,70.48
2018-03-23T12:15:38.899Z,70.49
2018-03-23T12:18:05.513Z,70.66
2018-03-23T12:20:31.970Z,70.50
2018-03-23T12:22:58.541Z,69.74
2018-03-23T12:25:25.101Z,70.76
2018-03-23T12:27:51.617Z,72.31
2018-03-23T12:30:18.083Z,71.48
2018-03-23T12:32:44.606Z,70.62
2018-03-23T12:35:11.040Z,71.28
2018-03-23T12:37:37.454Z,69.92
2018-03-23T12:40:04.035Z,69.72
2018-03-23T12:42:30.441Z,71.52
2018-03-23T12:44:57.034Z,71.14
2018-03-23T12:47:23.473Z,71.86
2018-03-23T12:49:49.868Z,71.56
2018-03-23T12:52:16.254Z,72.07
2018-03-23T12:54:43.822Z,70.92
2018-03-23T12:57:10.233Z,70.80
2018-03-23T12:59:36.682Z,71.26
2018-03-23T13:02:03.066Z,71.71
2018-03-23T13:04:29.559Z,73.19
2018-03-23T13:06:55.926Z,72.34
2018-03-23T13:09:22.430Z,72.03
2018-03-23T13:11:48.868Z,72.14
2018-03-23T13:14:15.287Z,72.64
2018-03-23T13:16:41.874Z,73.01
2018-03-23T13:19:08.226Z,70.93
2018-03-23T13:21:34.604Z,72.48
2018-03-23T13:24:00.977Z,72.09
2018-03-23T13:26:27.318Z,70.98
2018-03-23T13:28:53.756Z,71.62
2018-03-23T13:31:20.170Z,72.82
2018-03-23T13:33:46.611Z,73.37
2018-03-23T13:36:13.009Z,73.60
2018-03-23T13:38:39.462Z,74.08
2018-03-23T13:41:05.923Z,73.01
2018-03-23T13:43:32.410Z,71.62
2018-03-23T13:45:58.810Z,71.00
2018-03-23T13:48:25.197Z,71.53
2018-03-23T13:50:51.610Z,72.23
2018-03-23T13:53:17.970Z,69.89
2018-03-23T13:55:44.346Z,71.87
2018-03-23T13:58:10.872Z,72.47
2018-03-23T14:00:43.370Z,71.43
2018-03-23T14:03:09.773Z,71.93
2018-03-23T14:05:36.149Z,72.04
2018-03-23T14:08:02.554Z,73.42
2018-03-23T14:10:29.422Z,72.66
2018-03-23T14:12:55.924Z,72.24
2018-03-23T14:15:22.301Z,70.28
2018-03-23T14:17:48.701Z,70.68
2018-03-23T14:20:15.106Z,72.23
2018-03-23T14:22:41.475Z,70.87
2018-03-23T14:25:07.928Z,70.82
2018-03-23T14:27:34.310Z,71.68
2018-03-23T14:30:00.693Z,72.90
2018-03-23T14:32:27.209Z,73.42
2018-03-23T14:34:53.561Z,72.33
2018-03-23T14:37:20.159Z,70.91
2018-03-23T14:39:46.550Z,70.79
2018-03-23T14:42:12.947Z,72.22
2018-03-23T14:44:39.600Z,72.13
2018-03-23T14:47:06.026Z,71.70
2018-03-23T14:49:32.506Z,72.09
2018-03-23T14:51:58.982Z,71.97
2018-03-23T14:54:25.394Z,71.34
2018-03-23T14:56:51.786Z,73.16
2018-03-23T14:59:18.343Z,73.47
2018-03-23T15:01:44.714Z,72.54
2018-03-23T15:04:11.125Z,73.56
2018-03-23T15:06:37.622Z,73.30
2018-03-23T15:09:04.015Z,71.81
2018-03-23T15:11:30.428Z,70.54
2018-03-23T15:14:09.129Z,71.87
2018-03-23T15:16:35.502Z,70.59
2018-03-23T15:19:01.849Z,71.50
2018-03-23T15:21:28.254Z,71.20
2018-03-23T15:23:54.710Z,70.61
2018-03-23T15:26:21.129Z,70.26
2018-03-23T15:28:47.503Z,71.50
2018-03-23T15:31:13.918Z,72.02
2018-03-23T15:33:40.298Z,72.52
2018-03-23T15:36:06.699Z,71.09
2018-03-23T15:38:33.050Z,70.28
2018-03-23T15:40:59.424Z,71.22
2018-03-23T15:43:25.810Z,71.01
2018-03-23T15:45:52.189Z,70.89
2018-03-23T15:48:18.530Z,72.96
2018-03-23T15:50:44.928Z,71.91
2018-03-23T15:53:11.991Z,73.29
2018-03-23T15:55:41.421Z,71.00
2018-03-23T15:58:08.912Z,71.02
2018-03-23T16:00:35.536Z,70.78
2018-03-23T16:03:02.157Z,70.81
2018-03-23T16:05:29.048Z,72.14
2018-03-23T16:07:55.959Z,73.08
2018-03-23T16:10:23.263Z,73.41
2018-03-23T16:12:49.754Z,72.20
2018-03-23T16:15:16.121Z,72.42
2018-03-23T16:17:42.615Z,74.06
2018-03-23T16:20:10.783Z,72.64
2018-03-23T16:22:38.973Z,72.13
2018-03-23T16:25:05.627Z,71.54
2018-03-23T16:27:31.982Z,73.94
2018-03-23T16:29:58.358Z,74.45
2018-03-23T16:32:24.738Z,74.60
2018-03-23T16:34:51.113Z,75.13
2018-03-23T16:37:17.501Z,75.33
2018-03-23T16:39:43.832Z,74.22
2018-03-23T16:42:10.198Z,74.12
2018-03-23T16:44:36.612Z,73.80
2018-03-23T16:47:03.277Z,75.16
2018-03-23T16:49:29.718Z,76.74
2018-03-23T16:51:57.567Z,76.49
2018-03-23T16:54:24.566Z,76.30
2018-03-23T16:56:50.938Z,77.35
2018-03-23T16:59:17.350Z,77.60
2018-03-23T17:01:43.993Z,77.03
2018-03-23T17:04:10.470Z,78.61
2018-03-23T17:06:36.982Z,77.52
2018-03-23T17:09:03.461Z,77.70
2018-03-23T17:11:29.870Z,76.72
2018-03-23T17:13:56.433Z,77.38
2018-03-23T17:16:23.162Z,76.49
2018-03-23T17:18:49.560Z,77.89
2018-03-23T17:21:16.038Z,76.80
2018-03-23T17:23:42.511Z,78.34
2018-03-23T17:26:09.105Z,77.64
2018-03-23T17:28:35.470Z,77.28
2018-03-23T17:31:02.050Z,76.64
2018-03-23T17:33:28.570Z,77.36
2018-03-23T17:35:54.976Z,75.69
2018-03-23T17:38:21.390Z,75.58
2018-03-23T17:40:47.921Z,75.60
2018-03-23T17:43:14.322Z,76.14
2018-03-23T17:45:40.819Z,76.79
2018-03-23T17:48:07.307Z,75.10
2018-03-23T17:50:33.682Z,74.38
2018-03-23T17:53:00.152Z,75.66
2018-03-23T17:55:26.546Z,74.54
2018-03-23T17:57:52.937Z,75.97
2018-03-23T18:00:19.474Z,75.85
2018-03-23T18:02:45.845Z,76.57
2018-03-23T18:05:12.401Z,77.45
2018-03-23T18:07:38.836Z,76.05
2018-03-23T18:10:05.200Z,75.87
2018-03-23T18:12:31.642Z,75.66
2018-03-23T18:14:58.032Z,75.23
2018-03-23T18:17:24.586Z,74.17
2018-03-23T18:19:50.962Z,76.04
2018-03-23T18:22:17.301Z,75.67
2018-03-23T18:24:43.926Z,74.49
2018-03-23T18:27:10.278Z,74.95
2018-03-23T18:29:36.781Z,76.64
2018-03-23T18:32:03.360Z,74.67
2018-03-23T18:34:29.725Z,74.75
2018-03-23T18:36:56.078Z,73.97
2018-03-23T18:39:22.430Z,74.16
2018-03-23T18:41:48.774Z,76.31
2018-03-23T18:44:15.173Z,75.51
2018-03-23T18:46:41.558Z,75.39
2018-03-23T18:49:07.923Z,77.15
2018-03-23T18:51:34.301Z,76.21
2018-03-23T18:54:00.690Z,77.76
2018-03-23T18:56:27.055Z,76.13
2018-03-23T18:58:53.526Z,75.85
2018-03-23T19:01:19.890Z,77.30
2018-03-23T19:03:46.238Z,76.64
2018-03-23T19:06:12.606Z,74.27
2018-03-23T19:08:38.977Z,75.73
2018-03-23T19:11:05.431Z,78.15
2018-03-23T19:13:31.774Z,78.07
2018-03-23T19:15:58.122Z,76.81
2018-03-23T19:18:24.518Z,73.58
2018-03-23T19:20:50.925Z,75.78
2018-03-23T19:23:17.303Z,77.39
2018-03-23T19:25:43.686Z,75.18
2018-03-23T19:28:10.050Z,77.46
2018-03-23T19:30:36.425Z,78.12
2018-03-23T19:33:02.837Z,75.31
2018-03-23T19:35:29.202Z,75.09
2018-03-23T19:37:55.578Z,76.38
2018-03-23T19:40:21.917Z,74.52
2018-03-23T19:42:48.278Z,76.58
2018-03-23T19:45:14.760Z,74.47
2018-03-23T19:47:41.043Z,75.98
2018-03-23T19:50:07.399Z,78.22
2018-03-23T19:52:33.774Z,74.68
2018-03-23T19:55:00.134Z,73.91
2018-03-23T19:57:26.501Z,74.54
2018-03-23T19:59:52.895Z,75.95
2018-03-23T20:02:19.261Z,76.92
2018-03-23T20:04:45.745Z,77.69
2018-03-23T20:07:12.118Z,77.59
2018-03-23T20:09:38.629Z,78.03
2018-03-23T20:12:05.021Z,78.41
2018-03-23T20:14:31.459Z,79.52
2018-03-23T20:16:57.838Z,79.96
2018-03-23T20:19:24.193Z,80.36
2018-03-23T20:21:50.574Z,80.22
2018-03-23T20:24:23.039Z,79.47
2018-03-23T20:26:49.411Z,79.13
2018-03-23T20:29:15.774Z,78.23
2018-03-23T20:31:48.148Z,78.99
2018-03-23T20:34:14.517Z,79.59
2018-03-23T20:36:40.929Z,78.20
2018-03-23T20:39:07.305Z,77.94
2018-03-23T20:41:33.662Z,79.14
2018-03-23T20:44:00.058Z,79.23
2018-03-23T20:46:26.649Z,79.25
2018-03-23T20:48:53.010Z,78.42
2018-03-23T20:51:19.386Z,78.36
2018-03-23T20:53:45.790Z,77.93
2018-03-23T20:56:12.146Z,78.11
2018-03-23T20:58:38.742Z,78.97
2018-03-23T21:01:05.132Z,79.61
2018-03-23T21:03:31.572Z,80.01
2018-03-23T21:05:57.961Z,79.39
2018-03-23T21:08:24.317Z,79.16
2018-03-23T21:10:50.683Z,78.66
2018-03-23T21:13:17.085Z,78.90
2018-03-23T21:15:43.558Z,78.71
2018-03-23T21:18:09.948Z,78.35
2018-03-23T21:20:36.413Z,78.23
2018-03-23T21:23:02.918Z,78.18
2018-03-23T21:25:29.306Z,78.75
2018-03-23T21:27:55.657Z,78.75
2018-03-23T21:30:22.046Z,78.95
2018-03-23T21:32:48.402Z,80.29
2018-03-23T21:35:14.858Z,80.85
2018-03-23T21:37:41.334Z,80.71
2018-03-23T21:40:07.729Z,79.71
2018-03-23T21:42:34.134Z,79.51
2018-03-23T21:45:00.590Z,79.21
2018-03-23T21:47:27.001Z,79.33
2018-03-23T21:49:53.363Z,80.14
2018-03-23T21:52:19.750Z,80.21
2018-03-23T21:54:46.109Z,81.76
2018-03-23T21:57:12.468Z,82.16
2018-03-23T21:59:38.852Z,81.25
2018-03-23T22:02:05.242Z,81.21
2018-03-23T22:04:31.610Z,80.55
2018-03-23T22:06:57.982Z,80.03
2018-03-23T22:09:24.342Z,81.37
2018-03-23T22:11:50.772Z,81.49
2018-03-23T22:14:17.118Z,81.44
2018-03-23T22:16:43.529Z,79.52
2018-03-23T22:19:09.914Z,79.45
2018-03-23T22:21:36.301Z,80.83
2018-03-23T22:24:02.753Z,82.54
2018-03-23T22:26:29.122Z,80.77
2018-03-23T22:28:55.504Z,80.69
2018-03-23T22:31:21.938Z,80.62
2018-03-23T22:33:48.368Z,81.47
2018-03-23T22:36:14.725Z,80.51
2018-03-23T22:38:41.081Z,81.11
2018-03-23T22:41:07.486Z,80.20
2018-03-23T22:43:33.893Z,81.08
2018-03-23T22:46:00.274Z,81.21
2018-03-23T22:48:26.657Z,79.93
2018-03-23T22:50:53.034Z,78.19
2018-03-23T22:53:19.437Z,79.18
2018-03-23T22:55:45.821Z,81.65
2018-03-23T22:58:12.198Z,82.74
2018-03-23T23:00:38.638Z,81.39
2018-03-23T23:03:05.062Z,81.00
2018-03-23T23:05:31.449Z,81.11
2018-03-23T23:07:57.861Z,79.98
2018-03-23T23:10:24.234Z,79.02
2018-03-23T23:12:50.581Z,79.65
2018-03-23T23:15:16.977Z,80.72
2018-03-23T23:17:43.370Z,81.59
2018-03-23T23:20:09.745Z,82.82
2018-03-23T23:22:36.161Z,81.57
2018-03-23T23:25:02.634Z,81.25
2018-03-23T23:27:28.985Z,81.80
2018-03-23T23:29:55.339Z,79.83
2018-03-23T23:32:21.762Z,79.78
2018-03-23T23:34:48.138Z,82.49
2018-03-23T23:37:14.538Z,81.40
2018-03-23T23:39:40.927Z,81.70
2018-03-23T23:42:07.339Z,83.05
2018-03-23T23:44:33.702Z,80.96
2018-03-23T23:47:00.128Z,83.90
2018-03-23T23:49:26.478Z,82.92
2018-03-23T23:51:52.821Z,81.16
2018-03-23T23:54:19.176Z,81.84
2018-03-23T23:56:45.531Z,80.89
2018-03-23T23:59:11.983Z,82.00
